ADDS TAF Board (Experimental) INFO Settings
IDs:

KMCI - Kansas City Intl, MO, US

Issued at 2338 UTC 13 Feb 2016
Updated at: 2359 UTC 13 Feb 2016
Time2353Z 14/00Z 14/01Z 14/02Z 14/03Z 14/04Z 14/05Z 14/06Z 14/07Z 14/08Z 14/09Z 14/10Z 14/11Z 14/12Z
Type OBS PRVL PRVL PRVL PRVL PRVL PRVL PRVL PRVL PRVL PRVL PRVL
  [TEMP]  
PRVL
  [TEMP]  
PRVL
  [TEMP]  
VIS 10 >6 >6 >6 >6 >6 >6 >6 >6 >6 >6 >6 >6 >6
CIG 55 60 60 60 60 60 60 60 60 25 25 25
  [15]  
25
  [15]  
25
  [15]  
Cover OVC OVC OVC OVC OVC OVC OVC OVC OVC OVC OVC OVC
  [BKN]  
OVC
  [BKN]  
OVC
  [BKN]  
FltCat VFR VFR VFR VFR VFR VFR VFR VFR VFR MVFR MVFR MVFR
  [MVFR]  
MVFR
  [MVFR]  
MVFR
  [MVFR]  
WX -- -- -- -- -- -- -- -- -- -- -- --
  [-FZDZ]  
--
  [-FZDZ]  
--
  [-FZDZ]  
WDir 100 110 110 110 110 110 110 110 110 130 130 130
[130]
130
[130]
130
[130]
WSpd 14 14 14 14 14 14 14 14 14 13 13 13
  [13]  
13
  [13]  
13
  [13]  
WGst -- -- -- -- -- -- -- -- -- 21 21 21
  [21]  
21
  [21]  
21
  [21]  
R01/19
XWnd -14 -14 -14 -14 -14 -14 -14 -14 -14 -12 -12 -12 -12 -12
XGst -- -- -- -- -- -- -- -- -- -19 -19 -19 -19 -19
HWnd 1 -2 -2 -2 -2 -2 -2 -2 -2 -6 -6 -6 -6 -6
HGst -- -- -- -- -- -- -- -- -- -10 -10 -10 -10 -10
R09/27
XWnd -1 -3 -3 -3 -3 -3 -3 -3 -3 -7 -7 -7 -7 -7
XGst -- -- -- -- -- -- -- -- -- -12 -12 -12 -12 -12
HWnd 14 14 14 14 14 14 14 14 14 11 11 11 11 11
HGst -- -- -- -- -- -- -- -- -- 17 17 17 17 17

NOTE: TEMPO conditions in [brackets]. Keep in mind TEMPO conditions might be better (lower impact) than prevailing conditions.

Raw TAF
KMCI 132338Z 1400/1424 11014KT P6SM OVC060
  FM140800 13013G21KT P6SM OVC025
  TEMPO 1410/1414 -FZDZ BKN015
  FM141500 19013KT P6SM BKN020
  FM141800 27012KT P6SM SCT030


Raw METAR
KMCI 132353Z 10014KT 10SM OVC055 M07/M16 A3031 RMK AO2 SLP279 T10671161 11067 21078 58035
KMCI 132253Z 11014KT 10SM OVC055 M07/M16 A3035 RMK AO2 SLP292 T10671156
KMCI 132153Z 11012KT 10SM OVC055 M07/M16 A3038 RMK AO2 SLP303 T10671156
KMCI 132053Z 11011KT 10SM OVC060 M07/M16 A3041 RMK AO2 SLP315 T10671161 58042

METAR Board
Radar Display
Forecast Discussion

TAF Board Legend

Potential Impact
Threat None Slight Moderate High
Visibility (sm) ≥5.1 5.1>X≥3 3>X≥1 <1
Ceiling (100 ft) ≥30.1 30.1>X≥10 10>X≥5 <5
Wind Speed (kt) <10 10≤X<20 20≤X<30 ≥30
Wind Gust (kt) <15 15≤X<25 25≤X<35 ≥35
Weather No Wx Reported VCTS,-TS,-FZRA,SN TS,FZRA +TS,+FZRA,+SN